Kumamoto, Japan
Current Conditions -  °F | °C
As of 9:00 PM on Saturday 25 Oct 2014 (Local Time) from RJFT Reporting Station
Clear Clear  
Wind Chill: 64°   Ceiling: Unl
Heat Index: 64°   Visibility: 6mi
Dew Point: 55°   Wind: 5mph
Humidity: 73%   Direction: 50°NE
Pressure: 30.15"   Gusts: NA
Location:  32.8°N, 130.71°E
Report Text: RJFT 251200Z 05004KT CAVOK 18/13 Q1021
Loading
Personal Weather Stations






























Interactive Weather Map
Tropical Storm Tracking
New forecast layout! Learn more

10-Day Weather Forecast

Advertisements
Track Severe Weather on mobile